createdAt,value
2022-12-31T00:00:38.254Z,113.70
2022-12-31T00:03:10.245Z,114.67
2022-12-31T00:05:37.620Z,112.97
2022-12-31T00:08:05.118Z,114.53
2022-12-31T00:10:39.736Z,113.90
2022-12-31T00:13:11.095Z,114.50
2022-12-31T00:15:41.338Z,114.77
2022-12-31T00:18:09.932Z,114.67
2022-12-31T00:20:42.021Z,114.20
2022-12-31T00:23:11.158Z,113.90
2022-12-31T00:25:38.393Z,114.37
2022-12-31T00:28:05.769Z,114.77
2022-12-31T00:30:34.423Z,113.33
2022-12-31T00:33:01.513Z,114.77
2022-12-31T00:35:28.477Z,114.80
2022-12-31T00:37:55.500Z,114.50
2022-12-31T00:40:22.481Z,114.60
2022-12-31T00:42:49.952Z,113.90
2022-12-31T00:45:17.044Z,114.53
2022-12-31T00:47:44.033Z,114.83
2022-12-31T00:50:11.471Z,113.37
2022-12-31T00:52:38.485Z,114.90
2022-12-31T00:55:06.662Z,114.43
2022-12-31T00:57:34.075Z,114.67
2022-12-31T01:00:01.177Z,114.03
2022-12-31T01:02:28.776Z,114.80
2022-12-31T01:04:55.875Z,115.20
2022-12-31T01:07:22.891Z,114.70
2022-12-31T01:09:50.330Z,113.27
2022-12-31T01:12:17.403Z,114.67
2022-12-31T01:14:44.495Z,114.80
2022-12-31T01:17:13.185Z,114.87
2022-12-31T01:19:40.629Z,114.37
2022-12-31T01:22:07.602Z,115.27
2022-12-31T01:24:35.029Z,114.37
2022-12-31T01:27:02.421Z,116.00
2022-12-31T01:29:29.640Z,113.70
2022-12-31T01:31:57.152Z,115.07
2022-12-31T01:34:24.548Z,116.27
2022-12-31T01:36:51.953Z,115.90
2022-12-31T01:39:18.965Z,115.47
2022-12-31T01:41:47.976Z,113.67
2022-12-31T01:44:26.605Z,115.73
2022-12-31T01:47:04.072Z,115.67
2022-12-31T01:49:49.994Z,115.27
2022-12-31T01:52:33.198Z,115.20
2022-12-31T01:55:12.308Z,115.40
2022-12-31T01:57:40.033Z,116.47
2022-12-31T02:00:09.907Z,115.57
2022-12-31T02:02:37.487Z,115.57
2022-12-31T02:05:23.634Z,115.30
2022-12-31T02:07:53.466Z,114.80
2022-12-31T02:10:21.057Z,116.07
2022-12-31T02:12:48.995Z,115.10
2022-12-31T02:15:17.289Z,115.57
2022-12-31T02:18:20.718Z,115.60
2022-12-31T02:21:15.149Z,115.10
2022-12-31T02:24:32.563Z,113.27
2022-12-31T02:27:37.502Z,115.47
2022-12-31T02:30:22.830Z,115.27
2022-12-31T02:33:10.471Z,115.37
2022-12-31T02:35:56.578Z,115.10
2022-12-31T02:38:34.115Z,115.57
2022-12-31T02:41:01.826Z,114.87
2022-12-31T02:43:29.269Z,113.47
2022-12-31T02:46:39.349Z,113.57
2022-12-31T02:49:24.118Z,114.43
2022-12-31T02:52:15.023Z,115.00
2022-12-31T02:55:49.769Z,114.30
2022-12-31T02:59:23.382Z,115.80
2022-12-31T03:02:14.964Z,114.27
2022-12-31T03:05:03.623Z,114.80
2022-12-31T03:07:33.174Z,114.60
2022-12-31T03:10:01.284Z,115.50
2022-12-31T03:12:48.320Z,115.83
2022-12-31T03:15:28.691Z,115.67
2022-12-31T03:18:16.267Z,116.10
2022-12-31T03:21:08.202Z,115.37
2022-12-31T03:23:41.286Z,115.47
2022-12-31T03:26:12.513Z,115.40
2022-12-31T03:28:47.524Z,115.10
2022-12-31T03:31:16.098Z,115.87
2022-12-31T03:33:43.092Z,115.30
2022-12-31T03:36:14.769Z,116.50
2022-12-31T03:38:42.261Z,115.70
2022-12-31T03:41:11.493Z,116.57
2022-12-31T03:43:38.950Z,116.40
2022-12-31T03:46:06.562Z,114.90
2022-12-31T03:48:33.657Z,115.90
2022-12-31T03:51:00.613Z,115.10
2022-12-31T03:53:27.610Z,115.07
2022-12-31T03:55:55.031Z,113.50
2022-12-31T03:58:22.793Z,115.87
2022-12-31T04:00:50.423Z,116.87
2022-12-31T04:03:17.589Z,115.10
2022-12-31T04:05:45.021Z,115.37
2022-12-31T04:08:12.033Z,116.00
2022-12-31T04:10:39.000Z,116.10
2022-12-31T04:13:06.071Z,115.50
2022-12-31T04:15:33.492Z,115.80
2022-12-31T04:18:01.125Z,115.77
2022-12-31T04:20:28.090Z,114.77
2022-12-31T04:22:55.040Z,114.53
2022-12-31T04:25:22.464Z,114.97
2022-12-31T04:27:49.960Z,114.47
2022-12-31T04:30:17.002Z,114.30
2022-12-31T04:32:43.989Z,114.70
2022-12-31T04:35:12.421Z,114.97
2022-12-31T04:37:43.126Z,114.57
2022-12-31T04:40:11.390Z,115.27
2022-12-31T04:42:38.655Z,114.77
2022-12-31T04:45:06.925Z,115.17
2022-12-31T04:47:33.962Z,114.80
2022-12-31T04:50:01.452Z,115.10
2022-12-31T04:52:28.439Z,114.30
2022-12-31T04:54:55.443Z,114.57
2022-12-31T04:57:22.424Z,114.47
2022-12-31T04:59:49.444Z,114.80
2022-12-31T05:02:16.517Z,114.57
2022-12-31T05:04:43.787Z,115.53
2022-12-31T05:07:10.718Z,114.60
2022-12-31T05:09:38.942Z,115.27
2022-12-31T05:12:06.285Z,115.13
2022-12-31T05:14:33.308Z,115.47
2022-12-31T05:17:01.001Z,115.00
2022-12-31T05:19:28.624Z,115.90
2022-12-31T05:22:15.923Z,115.53
2022-12-31T05:24:42.937Z,115.27
2022-12-31T05:27:10.614Z,115.77
2022-12-31T05:29:37.587Z,114.17
2022-12-31T05:32:05.097Z,114.67
2022-12-31T05:34:32.115Z,115.20
2022-12-31T05:36:59.067Z,115.07
2022-12-31T05:39:26.463Z,115.43
2022-12-31T05:41:53.402Z,114.50
2022-12-31T05:44:20.843Z,115.43
2022-12-31T05:46:47.866Z,115.70
2022-12-31T05:49:16.585Z,115.37
2022-12-31T05:51:43.596Z,115.00
2022-12-31T05:54:10.654Z,115.27
2022-12-31T05:56:38.058Z,115.97
2022-12-31T05:59:05.042Z,115.47
2022-12-31T06:01:32.002Z,114.57
2022-12-31T06:03:59.130Z,114.37
2022-12-31T06:06:26.233Z,115.67
2022-12-31T06:08:53.512Z,116.17
2022-12-31T06:11:20.648Z,115.37
2022-12-31T06:13:48.104Z,113.17
2022-12-31T06:16:15.559Z,114.67
2022-12-31T06:18:42.720Z,115.17
2022-12-31T06:21:10.195Z,114.57
2022-12-31T06:23:37.201Z,115.07
2022-12-31T06:26:06.465Z,115.57
2022-12-31T06:28:33.660Z,116.90
2022-12-31T06:31:03.304Z,115.57
2022-12-31T06:33:31.324Z,115.07
2022-12-31T06:36:02.164Z,115.93
2022-12-31T06:38:32.338Z,115.43
2022-12-31T06:41:07.992Z,116.07
2022-12-31T06:43:36.122Z,115.40
2022-12-31T06:46:08.741Z,116.57
2022-12-31T06:48:36.747Z,115.70
2022-12-31T06:51:15.024Z,115.80
2022-12-31T06:53:49.561Z,115.93
2022-12-31T06:56:31.240Z,115.97
2022-12-31T06:59:02.336Z,115.57
2022-12-31T07:01:50.522Z,116.00
2022-12-31T07:05:00.581Z,116.70
2022-12-31T07:08:05.727Z,116.00
2022-12-31T07:11:00.061Z,116.40
2022-12-31T07:14:35.264Z,115.57
2022-12-31T07:17:46.464Z,115.00
2022-12-31T07:20:19.002Z,115.80
2022-12-31T07:22:46.854Z,116.90
2022-12-31T07:25:17.458Z,115.77
2022-12-31T07:28:32.391Z,115.57
2022-12-31T07:31:22.331Z,116.03
2022-12-31T07:33:59.899Z,116.77
2022-12-31T07:36:59.225Z,114.70
2022-12-31T07:39:54.175Z,115.73
2022-12-31T07:42:33.114Z,116.53
2022-12-31T07:45:50.903Z,116.27
2022-12-31T07:48:28.582Z,116.57
2022-12-31T07:50:57.972Z,115.37
2022-12-31T07:53:26.786Z,115.97
2022-12-31T07:56:01.718Z,114.37
2022-12-31T07:59:17.410Z,116.27
2022-12-31T08:03:01.741Z,116.90
2022-12-31T08:05:54.092Z,117.07
2022-12-31T08:08:38.774Z,114.90
2022-12-31T08:11:37.779Z,115.47
2022-12-31T08:14:12.284Z,116.07
2022-12-31T08:16:40.228Z,115.37
2022-12-31T08:19:18.776Z,114.93
2022-12-31T08:22:05.700Z,116.60
2022-12-31T08:25:14.897Z,115.27
2022-12-31T08:28:08.934Z,116.60
2022-12-31T08:31:04.353Z,114.63
2022-12-31T08:34:22.393Z,116.17
2022-12-31T08:37:17.883Z,116.80
2022-12-31T08:40:04.403Z,115.27
2022-12-31T08:42:43.284Z,115.83
2022-12-31T08:45:35.805Z,115.77
2022-12-31T08:48:33.310Z,115.67
2022-12-31T08:51:01.005Z,117.20
2022-12-31T08:53:28.607Z,115.53
2022-12-31T08:56:27.406Z,115.40
2022-12-31T08:59:51.127Z,116.57
2022-12-31T09:04:28.803Z,116.07
2022-12-31T09:07:01.723Z,115.57
2022-12-31T09:10:42.212Z,116.60
2022-12-31T09:13:45.642Z,116.20
2022-12-31T09:16:22.069Z,116.50
2022-12-31T09:18:49.572Z,116.80
2022-12-31T09:21:16.928Z,116.43
2022-12-31T09:23:44.679Z,117.00
2022-12-31T09:26:55.358Z,116.60
2022-12-31T09:30:06.174Z,116.70
2022-12-31T09:32:45.428Z,116.47
2022-12-31T09:35:56.958Z,116.30
2022-12-31T09:38:54.314Z,117.10
2022-12-31T09:42:11.782Z,116.93
2022-12-31T09:45:17.223Z,116.27
2022-12-31T09:48:38.400Z,117.40
2022-12-31T09:51:37.847Z,117.07
2022-12-31T09:54:45.146Z,117.40
2022-12-31T09:58:05.233Z,117.63
2022-12-31T10:01:02.918Z,117.03
2022-12-31T10:04:19.199Z,117.97
2022-12-31T10:07:23.099Z,117.50
2022-12-31T10:10:46.885Z,117.20
2022-12-31T10:13:59.239Z,117.67
2022-12-31T10:16:38.304Z,117.10
2022-12-31T10:19:45.894Z,116.57
2022-12-31T10:22:45.939Z,117.43
2022-12-31T10:26:06.120Z,117.67
2022-12-31T10:29:57.361Z,117.23
2022-12-31T10:33:07.466Z,117.10
2022-12-31T10:35:50.754Z,117.07
2022-12-31T10:39:06.078Z,117.30
2022-12-31T10:42:19.151Z,117.57
2022-12-31T10:45:24.961Z,117.47
2022-12-31T10:48:30.697Z,116.90
2022-12-31T10:51:43.495Z,117.57
2022-12-31T10:54:53.112Z,117.20
2022-12-31T10:58:04.518Z,116.50
2022-12-31T11:01:16.919Z,116.60
2022-12-31T11:04:35.566Z,117.47
2022-12-31T11:08:12.897Z,117.47
2022-12-31T11:11:09.121Z,116.50
2022-12-31T11:14:19.072Z,116.73
2022-12-31T11:17:01.902Z,116.87
2022-12-31T11:19:46.119Z,116.40
2022-12-31T11:23:12.272Z,116.20
2022-12-31T11:26:42.529Z,116.97
2022-12-31T11:30:27.609Z,117.17
2022-12-31T11:33:34.035Z,116.43
2022-12-31T11:36:45.160Z,116.90
2022-12-31T11:39:51.835Z,116.97
2022-12-31T11:42:58.841Z,116.37
2022-12-31T11:46:02.910Z,117.10
2022-12-31T11:49:35.448Z,117.10
2022-12-31T11:52:27.361Z,117.10
2022-12-31T11:56:28.330Z,117.20
2022-12-31T11:58:56.585Z,116.90
2022-12-31T12:01:32.977Z,117.17
2022-12-31T12:04:01.590Z,117.07
2022-12-31T12:06:33.122Z,116.40
2022-12-31T12:09:07.127Z,116.80
2022-12-31T12:11:40.441Z,117.27
2022-12-31T12:14:38.660Z,116.43
2022-12-31T12:17:17.916Z,116.70
2022-12-31T12:19:53.921Z,116.60
2022-12-31T12:22:28.913Z,116.70
2022-12-31T12:25:04.422Z,116.67
2022-12-31T12:27:35.943Z,116.87
2022-12-31T12:30:25.938Z,116.50
2022-12-31T12:32:58.655Z,116.70
2022-12-31T12:35:35.622Z,115.90
2022-12-31T12:38:18.687Z,116.40
2022-12-31T12:41:02.801Z,116.13
2022-12-31T12:43:39.523Z,116.67
2022-12-31T12:46:48.542Z,115.90
2022-12-31T12:49:32.981Z,116.37
2022-12-31T12:52:29.472Z,116.10
2022-12-31T12:55:23.432Z,116.17
2022-12-31T12:58:35.758Z,116.10
2022-12-31T13:01:38.605Z,115.87
2022-12-31T13:04:44.833Z,116.20
2022-12-31T13:07:53.770Z,115.50
2022-12-31T13:10:54.609Z,115.67
2022-12-31T13:14:02.435Z,116.30
2022-12-31T13:16:59.391Z,116.13
2022-12-31T13:19:55.025Z,116.33
2022-12-31T13:22:59.910Z,116.20
2022-12-31T13:26:18.409Z,116.30
2022-12-31T13:28:51.001Z,116.87
2022-12-31T13:31:27.712Z,116.80
2022-12-31T13:34:05.860Z,116.87
2022-12-31T13:36:40.958Z,116.10
2022-12-31T13:39:22.589Z,115.97
2022-12-31T13:42:23.546Z,116.37
2022-12-31T13:45:14.651Z,116.60
2022-12-31T13:48:05.601Z,117.17
2022-12-31T13:50:38.626Z,117.17
2022-12-31T13:53:32.584Z,116.77
2022-12-31T13:56:11.869Z,117.27
2022-12-31T13:59:05.499Z,117.17
2022-12-31T14:01:47.636Z,116.83
2022-12-31T14:04:44.630Z,116.97
2022-12-31T14:07:39.071Z,116.87
2022-12-31T14:10:16.969Z,117.60
2022-12-31T14:13:58.494Z,117.60
2022-12-31T14:17:10.823Z,118.07
2022-12-31T14:19:47.575Z,117.97
2022-12-31T14:23:15.855Z,117.97
2022-12-31T14:26:00.143Z,118.10
2022-12-31T14:28:47.312Z,118.30
2022-12-31T14:31:49.310Z,118.20
2022-12-31T14:34:50.853Z,118.23
2022-12-31T14:37:45.878Z,118.03
2022-12-31T14:40:27.388Z,118.00
2022-12-31T14:43:48.137Z,118.47
2022-12-31T14:47:09.091Z,118.20
2022-12-31T14:50:05.457Z,118.20
2022-12-31T14:52:48.080Z,118.30
2022-12-31T14:55:15.547Z,118.80
2022-12-31T14:58:25.970Z,116.80
2022-12-31T15:00:56.651Z,118.30
2022-12-31T15:03:45.413Z,118.77
2022-12-31T15:06:38.033Z,117.70
2022-12-31T15:09:51.629Z,118.90
2022-12-31T15:12:44.842Z,118.50
2022-12-31T15:16:13.956Z,117.90
2022-12-31T15:19:40.182Z,116.97
2022-12-31T15:22:29.418Z,117.27
2022-12-31T15:24:57.736Z,118.90
2022-12-31T15:27:36.789Z,118.30
2022-12-31T15:30:06.961Z,118.43
2022-12-31T15:32:41.188Z,118.70
2022-12-31T15:35:23.631Z,118.37
2022-12-31T15:38:35.055Z,118.17
2022-12-31T15:41:24.311Z,118.77
2022-12-31T15:44:08.537Z,117.53
2022-12-31T15:46:42.660Z,118.17
2022-12-31T15:49:23.086Z,118.63
2022-12-31T15:53:03.122Z,117.90
2022-12-31T15:55:48.595Z,117.47
2022-12-31T15:58:22.871Z,117.70
2022-12-31T16:01:14.033Z,118.10
2022-12-31T16:03:54.617Z,118.70
2022-12-31T16:06:22.445Z,117.77
2022-12-31T16:08:50.662Z,118.60
2022-12-31T16:11:18.808Z,118.60
2022-12-31T16:13:52.835Z,118.70
2022-12-31T16:16:24.807Z,118.30
2022-12-31T16:18:55.889Z,117.87
2022-12-31T16:21:35.761Z,119.00
2022-12-31T16:24:35.184Z,117.80
2022-12-31T16:27:15.287Z,118.07
2022-12-31T16:29:55.573Z,118.20
2022-12-31T16:32:23.369Z,116.60
2022-12-31T16:34:51.111Z,117.57
2022-12-31T16:37:22.966Z,118.03
2022-12-31T16:39:56.284Z,118.83
2022-12-31T16:42:29.155Z,118.70
2022-12-31T16:44:58.009Z,117.23
2022-12-31T16:47:36.408Z,118.47
2022-12-31T16:50:17.590Z,116.77
2022-12-31T16:52:57.751Z,117.67
2022-12-31T16:55:30.808Z,118.30
2022-12-31T16:58:21.177Z,117.57
2022-12-31T17:00:51.657Z,118.27
2022-12-31T17:03:25.990Z,117.50
2022-12-31T17:06:12.370Z,117.67
2022-12-31T17:08:57.876Z,118.40
2022-12-31T17:11:42.233Z,118.17
2022-12-31T17:14:09.659Z,116.60
2022-12-31T17:17:06.087Z,117.80
2022-12-31T17:19:51.244Z,117.27
2022-12-31T17:22:44.032Z,118.30
2022-12-31T17:25:31.328Z,116.27
2022-12-31T17:28:06.874Z,118.10
2022-12-31T17:30:34.540Z,116.87
2022-12-31T17:33:22.689Z,118.80
2022-12-31T17:36:14.193Z,117.97
2022-12-31T17:38:42.147Z,118.40
2022-12-31T17:41:16.260Z,118.37
2022-12-31T17:43:44.032Z,117.40
2022-12-31T17:46:16.025Z,117.77
2022-12-31T17:48:46.127Z,117.57
2022-12-31T17:51:13.560Z,116.87
2022-12-31T17:53:41.871Z,117.60
2022-12-31T17:56:18.359Z,118.57
2022-12-31T17:58:53.870Z,117.87
2022-12-31T18:01:23.321Z,118.27
2022-12-31T18:03:51.070Z,118.43
2022-12-31T18:06:19.493Z,117.60
2022-12-31T18:08:47.210Z,116.70
2022-12-31T18:11:24.217Z,118.77
2022-12-31T18:13:53.439Z,117.50
2022-12-31T18:16:20.929Z,117.07
2022-12-31T18:18:48.479Z,118.17
2022-12-31T18:21:30.176Z,118.77
2022-12-31T18:26:26.025Z,118.13
2022-12-31T18:28:53.913Z,117.20
2022-12-31T18:31:30.168Z,117.57
2022-12-31T18:33:59.198Z,117.50
2022-12-31T18:36:29.325Z,117.83
2022-12-31T18:38:56.750Z,118.03
2022-12-31T18:41:34.347Z,117.77
2022-12-31T18:44:01.800Z,118.57
2022-12-31T18:46:29.336Z,117.23
2022-12-31T18:48:56.855Z,117.37
2022-12-31T18:51:31.365Z,116.60
2022-12-31T18:54:01.587Z,118.00
2022-12-31T18:56:29.248Z,117.87
2022-12-31T18:58:56.682Z,117.47
2022-12-31T19:01:34.763Z,115.87
2022-12-31T19:04:26.624Z,118.27
2022-12-31T19:06:55.844Z,117.67
2022-12-31T19:09:44.488Z,118.13
2022-12-31T19:12:15.123Z,117.27
2022-12-31T19:14:42.655Z,118.03
2022-12-31T19:19:36.433Z,117.47
2022-12-31T19:22:03.423Z,116.33
2022-12-31T19:24:31.633Z,116.77
2022-12-31T19:27:00.753Z,117.47
2022-12-31T19:29:28.822Z,116.77
2022-12-31T19:31:57.796Z,116.83
2022-12-31T19:34:25.325Z,118.10
2022-12-31T19:36:52.779Z,117.10
2022-12-31T19:39:21.398Z,117.50
2022-12-31T19:41:58.182Z,116.87
2022-12-31T19:44:25.974Z,116.97
2022-12-31T19:46:53.445Z,116.70
2022-12-31T19:49:20.477Z,117.57
2022-12-31T19:51:47.909Z,116.90
2022-12-31T19:54:15.365Z,117.67
2022-12-31T19:56:42.842Z,117.50
2022-12-31T19:59:10.963Z,117.40
2022-12-31T20:01:38.536Z,116.37
2022-12-31T20:04:05.678Z,116.87
2022-12-31T20:06:33.122Z,118.17
2022-12-31T20:09:00.670Z,119.00
2022-12-31T20:11:27.966Z,118.10
2022-12-31T20:13:55.480Z,116.60
2022-12-31T20:16:26.628Z,116.80
2022-12-31T20:18:54.080Z,115.90
2022-12-31T20:21:26.591Z,117.70
2022-12-31T20:23:55.295Z,118.00
2022-12-31T20:26:25.217Z,116.97
2022-12-31T20:28:53.418Z,117.50
2022-12-31T20:31:24.483Z,116.07
2022-12-31T20:33:54.042Z,117.13
2022-12-31T20:36:22.444Z,117.60
2022-12-31T20:38:50.289Z,117.17
2022-12-31T20:41:21.731Z,118.27
2022-12-31T20:43:49.605Z,116.57
2022-12-31T20:46:21.922Z,117.80
2022-12-31T20:48:52.091Z,116.80
2022-12-31T20:51:21.455Z,116.97
2022-12-31T20:53:57.205Z,117.03
2022-12-31T20:56:29.619Z,117.40
2022-12-31T20:58:57.470Z,119.20
2022-12-31T21:01:32.129Z,118.30
2022-12-31T21:04:13.403Z,115.20
2022-12-31T21:06:40.443Z,117.20
2022-12-31T21:09:08.889Z,116.70
2022-12-31T21:11:54.693Z,117.47
2022-12-31T21:14:22.001Z,117.67
2022-12-31T21:16:49.078Z,117.20
2022-12-31T21:19:16.249Z,117.20
2022-12-31T21:21:43.679Z,116.87
2022-12-31T21:24:11.412Z,117.47
2022-12-31T21:26:38.372Z,115.50
2022-12-31T21:29:05.855Z,117.80
2022-12-31T21:31:33.348Z,117.07
2022-12-31T21:34:00.829Z,115.80
2022-12-31T21:36:27.854Z,115.53
2022-12-31T21:38:55.866Z,117.87
2022-12-31T21:41:41.778Z,117.67
2022-12-31T21:44:08.884Z,116.77
2022-12-31T21:46:36.052Z,116.63
2022-12-31T21:49:03.183Z,116.60
2022-12-31T21:51:30.417Z,115.87
2022-12-31T21:53:58.351Z,117.30
2022-12-31T21:56:25.616Z,116.70
2022-12-31T21:59:17.100Z,117.70
2022-12-31T22:02:03.092Z,117.10
2022-12-31T22:07:17.673Z,115.57
2022-12-31T22:09:44.685Z,116.80
2022-12-31T22:12:12.127Z,117.90
2022-12-31T22:14:39.549Z,116.80
2022-12-31T22:17:26.688Z,117.97
2022-12-31T22:20:25.118Z,116.60
2022-12-31T22:22:40.624Z,117.87
2022-12-31T22:25:08.513Z,116.50
2022-12-31T22:27:35.948Z,117.60
2022-12-31T22:30:02.922Z,116.00
2022-12-31T22:32:29.902Z,118.60
2022-12-31T22:34:57.275Z,117.80
2022-12-31T22:40:11.825Z,116.50
2022-12-31T22:42:38.847Z,115.90
2022-12-31T22:45:08.211Z,115.50
2022-12-31T22:47:35.472Z,116.80
2022-12-31T22:50:02.878Z,117.30
2022-12-31T22:52:31.221Z,117.77
2022-12-31T22:54:58.800Z,118.80
2022-12-31T22:57:25.992Z,154.37
2022-12-31T22:59:53.089Z,121.07
2022-12-31T23:02:20.120Z,211.77
2022-12-31T23:04:47.095Z,187.40
2022-12-31T23:07:14.027Z,247.23
2022-12-31T23:09:59.738Z,262.43
2022-12-31T23:12:26.946Z,187.40
2022-12-31T23:15:12.853Z,132.03
2022-12-31T23:17:58.639Z,121.00
2022-12-31T23:20:44.564Z,127.07
2022-12-31T23:23:16.866Z,120.37
2022-12-31T23:25:48.706Z,140.47
2022-12-31T23:28:22.337Z,194.50
2022-12-31T23:30:51.407Z,115.97
2022-12-31T23:33:23.284Z,118.60
2022-12-31T23:35:50.735Z,117.77
2022-12-31T23:38:18.821Z,137.50
2022-12-31T23:40:46.303Z,125.40
2022-12-31T23:43:21.930Z,120.97
2022-12-31T23:45:51.256Z,115.97
2022-12-31T23:48:18.423Z,117.77
2022-12-31T23:50:53.075Z,115.70
2022-12-31T23:53:24.398Z,117.10
2022-12-31T23:55:52.608Z,115.37
2022-12-31T23:58:20.976Z,117.20
